createdAt,value
2023-05-21T00:02:24.171Z,98578.24
2023-05-21T00:04:52.537Z,98576.52
2023-05-21T00:07:20.720Z,98578.45
2023-05-21T00:09:48.392Z,98576.58
2023-05-21T00:12:15.991Z,98573.09
2023-05-21T00:14:43.608Z,98575.45
2023-05-21T00:17:11.160Z,98575.81
2023-05-21T00:19:40.317Z,98576.37
2023-05-21T00:22:07.932Z,98574.19
2023-05-21T00:24:35.517Z,98572.76
2023-05-21T00:27:03.220Z,98574.08
2023-05-21T00:29:30.648Z,98574.19
2023-05-21T00:31:58.237Z,98579.29
2023-05-21T00:34:26.906Z,98582.40
2023-05-21T00:36:56.051Z,98580.05
2023-05-21T00:39:24.542Z,98578.98
2023-05-21T00:41:52.292Z,98576.80
2023-05-21T00:44:21.000Z,98576.27
2023-05-21T00:46:49.143Z,98572.98
2023-05-21T00:49:16.820Z,98573.48
2023-05-21T00:51:45.584Z,98567.71
2023-05-21T00:54:13.377Z,98569.79
2023-05-21T00:56:41.045Z,98568.25
2023-05-21T00:59:08.467Z,98564.48
2023-05-21T01:01:37.734Z,98565.36
2023-05-21T01:04:05.403Z,98566.96
2023-05-21T01:06:35.785Z,98565.90
2023-05-21T01:09:05.374Z,98569.00
2023-05-21T01:11:41.483Z,98566.29
2023-05-21T01:14:09.975Z,98566.29
2023-05-21T01:16:38.058Z,98566.27
2023-05-21T01:19:06.505Z,98568.11
2023-05-21T01:21:38.089Z,98565.19
2023-05-21T01:24:07.978Z,98564.85
2023-05-21T01:26:39.113Z,98560.17
2023-05-21T01:29:13.667Z,98558.68
2023-05-21T01:32:19.486Z,98552.15
2023-05-21T01:35:06.257Z,98545.67
2023-05-21T01:37:55.552Z,98543.66
2023-05-21T01:40:30.352Z,98548.04
2023-05-21T01:42:58.302Z,98543.14
2023-05-21T01:45:25.924Z,98542.63
2023-05-21T01:47:54.944Z,98542.63
2023-05-21T01:50:25.970Z,98543.17
2023-05-21T01:53:01.581Z,98542.29
2023-05-21T01:55:31.468Z,98541.88
2023-05-21T01:58:01.979Z,98538.42
2023-05-21T02:00:32.748Z,98535.33
2023-05-21T02:03:01.183Z,98531.87
2023-05-21T02:05:29.951Z,98532.63
2023-05-21T02:07:57.438Z,98533.70
2023-05-21T02:10:25.437Z,98536.77
2023-05-21T02:12:53.189Z,98533.51
2023-05-21T02:15:20.982Z,98532.73
2023-05-21T02:17:51.888Z,98530.41
2023-05-21T02:20:19.729Z,98525.91
2023-05-21T02:22:48.241Z,98527.70
2023-05-21T02:25:20.065Z,98526.23
2023-05-21T02:27:48.604Z,98527.36
2023-05-21T02:30:16.522Z,98527.89
2023-05-21T02:32:44.116Z,98526.27
2023-05-21T02:35:12.794Z,98525.02
2023-05-21T02:37:40.781Z,98527.87
2023-05-21T02:40:10.401Z,98524.64
2023-05-21T02:42:40.340Z,98523.55
2023-05-21T02:45:10.016Z,98522.64
2023-05-21T02:47:38.903Z,98523.52
2023-05-21T02:50:08.529Z,98522.40
2023-05-21T02:52:40.199Z,98521.34
2023-05-21T02:55:08.586Z,98520.23
2023-05-21T02:57:36.929Z,98519.39
2023-05-21T03:00:06.547Z,98516.09
2023-05-21T03:02:34.700Z,98515.73
2023-05-21T03:05:03.179Z,98517.11
2023-05-21T03:07:31.840Z,98517.59
2023-05-21T03:09:59.791Z,98518.78
2023-05-21T03:12:27.541Z,98514.67
2023-05-21T03:14:56.877Z,98517.80
2023-05-21T03:17:24.564Z,98520.36
2023-05-21T03:19:52.394Z,98519.61
2023-05-21T03:22:20.587Z,98522.47
2023-05-21T03:24:49.320Z,98520.23
2023-05-21T03:27:18.381Z,98518.03
2023-05-21T03:29:46.208Z,98518.80
2023-05-21T03:32:14.288Z,98518.74
2023-05-21T03:34:42.333Z,98523.29
2023-05-21T03:37:09.739Z,98527.61
2023-05-21T03:39:37.777Z,98522.54
2023-05-21T03:42:06.610Z,98527.56
2023-05-21T03:44:42.244Z,98527.22
2023-05-21T03:47:32.522Z,98533.41
2023-05-21T03:50:00.374Z,98533.60
2023-05-21T03:52:28.064Z,98533.44
2023-05-21T03:54:56.461Z,98532.61
2023-05-21T03:57:24.055Z,98531.48
2023-05-21T03:59:51.743Z,98534.17
2023-05-21T04:02:19.250Z,98529.64
2023-05-21T04:04:47.886Z,98532.04
2023-05-21T04:07:15.662Z,98535.20
2023-05-21T04:09:43.210Z,98534.71
2023-05-21T04:12:10.882Z,98534.34
2023-05-21T04:14:38.560Z,98531.48
2023-05-21T04:17:06.141Z,98530.93
2023-05-21T04:19:34.355Z,98529.15
2023-05-21T04:22:03.726Z,98532.60
2023-05-21T04:24:31.648Z,98529.90
2023-05-21T04:27:10.274Z,98527.39
2023-05-21T04:29:38.233Z,98527.65
2023-05-21T04:32:06.742Z,98524.55
2023-05-21T04:34:34.997Z,98526.94
2023-05-21T04:37:02.775Z,98528.36
2023-05-21T04:39:31.909Z,98526.05
2023-05-21T04:41:59.372Z,98529.77
2023-05-21T04:44:27.079Z,98533.74
2023-05-21T04:46:55.121Z,98539.91
2023-05-21T04:49:23.089Z,98541.73
2023-05-21T04:51:50.751Z,98541.73
2023-05-21T04:54:18.552Z,98539.95
2023-05-21T04:56:47.659Z,98534.52
2023-05-21T04:59:16.327Z,98534.17
2023-05-21T05:01:44.346Z,98532.21
2023-05-21T05:04:12.005Z,98529.68
2023-05-21T05:06:40.192Z,98526.81
2023-05-21T05:09:07.656Z,98525.36
2023-05-21T05:11:35.421Z,98524.33
2023-05-21T05:14:03.013Z,98526.30
2023-05-21T05:16:31.630Z,98529.95
2023-05-21T05:18:59.280Z,98531.17
2023-05-21T05:21:27.478Z,98536.45
2023-05-21T05:23:55.999Z,98539.55
2023-05-21T05:26:27.623Z,98540.52
2023-05-21T05:28:55.435Z,98541.61
2023-05-21T05:31:23.057Z,98539.41
2023-05-21T05:33:50.802Z,98545.61
2023-05-21T05:36:18.564Z,98542.35
2023-05-21T05:38:47.244Z,98539.29
2023-05-21T05:41:14.765Z,98543.98
2023-05-21T05:43:42.881Z,98545.82
2023-05-21T05:46:10.550Z,98543.84
2023-05-21T05:48:38.327Z,98542.52
2023-05-21T05:51:06.121Z,98540.85
2023-05-21T05:53:33.641Z,98539.20
2023-05-21T05:56:01.622Z,98538.36
2023-05-21T05:58:30.446Z,98534.71
2023-05-21T06:01:07.205Z,98534.23
2023-05-21T06:03:35.595Z,98530.36
2023-05-21T06:06:08.889Z,98531.41
2023-05-21T06:08:38.179Z,98532.66
2023-05-21T06:11:06.284Z,98534.34
2023-05-21T06:13:34.111Z,98532.33
2023-05-21T06:16:03.511Z,98531.89
2023-05-21T06:18:31.080Z,98533.02
2023-05-21T06:20:58.721Z,98529.00
2023-05-21T06:23:27.005Z,98526.08
2023-05-21T06:25:55.204Z,98523.89
2023-05-21T06:28:23.015Z,98522.80
2023-05-21T06:30:51.361Z,98525.45
2023-05-21T06:33:18.955Z,98525.11
2023-05-21T06:35:46.825Z,98524.36
2023-05-21T06:38:14.858Z,98519.33
2023-05-21T06:40:45.008Z,98520.04
2023-05-21T06:43:17.790Z,98522.56
2023-05-21T06:46:04.309Z,98524.96
2023-05-21T06:48:38.611Z,98526.06
2023-05-21T06:51:06.320Z,98523.34
2023-05-21T06:53:34.179Z,98522.42
2023-05-21T06:56:01.870Z,98522.60
2023-05-21T06:58:44.054Z,98522.45
2023-05-21T07:01:12.265Z,98522.48
2023-05-21T07:03:40.276Z,98516.48
2023-05-21T07:06:08.946Z,98517.20
2023-05-21T07:08:36.425Z,98516.67
2023-05-21T07:11:04.022Z,98519.42
2023-05-21T07:13:31.748Z,98519.05
2023-05-21T07:15:59.517Z,98513.77
2023-05-21T07:18:27.879Z,98512.48
2023-05-21T07:20:55.800Z,98511.45
2023-05-21T07:23:23.667Z,98513.96
2023-05-21T07:25:51.616Z,98508.77
2023-05-21T07:28:21.582Z,98507.94
2023-05-21T07:30:49.658Z,98509.81
2023-05-21T07:33:21.314Z,98505.80
2023-05-21T07:35:49.266Z,98500.80
2023-05-21T07:38:18.038Z,98497.66
2023-05-21T07:40:45.755Z,98490.41
2023-05-21T07:43:13.793Z,98491.45
2023-05-21T07:45:41.621Z,98492.11
2023-05-21T07:48:09.397Z,98494.19
2023-05-21T07:50:40.041Z,98487.48
2023-05-21T07:53:08.168Z,98487.61
2023-05-21T07:55:36.167Z,98485.46
2023-05-21T07:58:04.273Z,98485.98
2023-05-21T08:00:36.576Z,98487.21
2023-05-21T08:03:04.626Z,98483.77
2023-05-21T08:05:33.282Z,98486.14
2023-05-21T08:08:01.506Z,98482.65
2023-05-21T08:10:29.592Z,98481.52
2023-05-21T08:12:58.364Z,98477.91
2023-05-21T08:15:26.348Z,98474.81
2023-05-21T08:17:54.709Z,98471.31
2023-05-21T08:20:24.081Z,98470.96
2023-05-21T08:22:51.662Z,98470.79
2023-05-21T08:25:20.206Z,98471.34
2023-05-21T08:27:48.693Z,98470.23
2023-05-21T08:30:17.406Z,98469.88
2023-05-21T08:32:45.319Z,98468.95
2023-05-21T08:35:13.723Z,98470.04
2023-05-21T08:38:01.762Z,98466.43
2023-05-21T08:41:05.780Z,98467.33
2023-05-21T08:43:33.430Z,98471.89
2023-05-21T08:46:04.276Z,98465.52
2023-05-21T08:48:33.900Z,98463.27
2023-05-21T08:51:02.090Z,98464.96
2023-05-21T08:53:34.108Z,98465.48
2023-05-21T08:56:02.093Z,98467.12
2023-05-21T08:58:43.208Z,98468.73
2023-05-21T09:01:11.841Z,98468.73
2023-05-21T09:03:43.598Z,98467.23
2023-05-21T09:06:11.837Z,98469.10
2023-05-21T09:08:39.830Z,98468.35
2023-05-21T09:11:14.697Z,98467.77
2023-05-21T09:13:46.807Z,98465.24
2023-05-21T09:16:20.762Z,98462.84
2023-05-21T09:18:49.646Z,98461.73
2023-05-21T09:21:28.475Z,98453.71
2023-05-21T09:24:14.690Z,98454.95
2023-05-21T09:26:46.003Z,98459.90
2023-05-21T09:29:13.681Z,98455.88
2023-05-21T09:31:45.663Z,98457.28
2023-05-21T09:34:16.714Z,98452.97
2023-05-21T09:36:46.285Z,98453.20
2023-05-21T09:39:16.828Z,98459.59
2023-05-21T09:41:44.770Z,98455.20
2023-05-21T09:44:12.474Z,98450.58
2023-05-21T09:46:43.405Z,98450.64
2023-05-21T09:49:27.227Z,98449.73
2023-05-21T09:51:59.178Z,98449.84
2023-05-21T09:54:31.487Z,98449.98
2023-05-21T09:57:05.307Z,98447.42
2023-05-21T09:59:39.654Z,98445.45
2023-05-21T10:02:37.968Z,98444.39
2023-05-21T10:05:06.246Z,98440.03
2023-05-21T10:07:34.277Z,98442.58
2023-05-21T10:10:01.984Z,98444.94
2023-05-21T10:12:30.456Z,98442.55
2023-05-21T10:15:02.158Z,98443.60
2023-05-21T10:17:30.764Z,98441.94
2023-05-21T10:19:58.643Z,98435.77
2023-05-21T10:22:26.375Z,98433.02
2023-05-21T10:24:54.236Z,98437.54
2023-05-21T10:27:23.453Z,98431.34
2023-05-21T10:29:51.181Z,98430.04
2023-05-21T10:32:18.759Z,98427.88
2023-05-21T10:34:46.706Z,98426.24
2023-05-21T10:37:15.525Z,98421.89
2023-05-21T10:39:43.198Z,98421.14
2023-05-21T10:42:32.871Z,98423.32
2023-05-21T10:45:16.897Z,98422.97
2023-05-21T10:47:44.596Z,98418.21
2023-05-21T10:50:31.522Z,98417.30
2023-05-21T10:53:18.368Z,98404.20
2023-05-21T10:56:07.715Z,98400.98
2023-05-21T10:59:06.770Z,98404.40
2023-05-21T11:01:36.197Z,98406.61
2023-05-21T11:04:07.256Z,98395.89
2023-05-21T11:06:35.032Z,98401.70
2023-05-21T11:09:23.738Z,98397.64
2023-05-21T11:11:54.433Z,98395.33
2023-05-21T11:14:58.035Z,98392.95
2023-05-21T11:17:42.420Z,98387.48
2023-05-21T11:20:14.703Z,98384.94
2023-05-21T11:22:42.439Z,98388.88
2023-05-21T11:25:10.740Z,98386.31
2023-05-21T11:27:39.303Z,98387.04
2023-05-21T11:30:09.077Z,98381.38
2023-05-21T11:32:41.112Z,98379.71
2023-05-21T11:35:09.475Z,98375.48
2023-05-21T11:37:41.089Z,98374.73
2023-05-21T11:40:26.300Z,98370.17
2023-05-21T11:42:56.204Z,98371.05
2023-05-21T11:45:28.593Z,98370.89
2023-05-21T11:47:56.553Z,98372.02
2023-05-21T11:50:24.367Z,98365.68
2023-05-21T11:52:52.407Z,98360.38
2023-05-21T11:55:25.374Z,98363.08
2023-05-21T11:57:54.359Z,98362.86
2023-05-21T12:00:22.190Z,98364.63
2023-05-21T12:02:54.621Z,98359.73
2023-05-21T12:05:22.693Z,98363.27
2023-05-21T12:07:50.834Z,98355.43
2023-05-21T12:10:22.353Z,98353.02
2023-05-21T12:12:54.631Z,98344.90
2023-05-21T12:15:24.808Z,98347.54
2023-05-21T12:17:53.389Z,98351.35
2023-05-21T12:20:21.568Z,98352.85
2023-05-21T12:22:50.661Z,98353.70
2023-05-21T12:25:22.595Z,98347.30
2023-05-21T12:27:54.410Z,98340.39
2023-05-21T12:30:22.264Z,98334.15
2023-05-21T12:32:53.305Z,98340.83
2023-05-21T12:35:23.469Z,98336.38
2023-05-21T12:37:51.620Z,98341.58
2023-05-21T12:40:19.685Z,98333.14
2023-05-21T12:42:47.604Z,98331.63
2023-05-21T12:45:15.912Z,98339.58
2023-05-21T12:47:44.890Z,98337.08
2023-05-21T12:50:12.692Z,98334.19
2023-05-21T12:52:44.960Z,98334.59
2023-05-21T12:55:14.099Z,98324.98
2023-05-21T12:57:44.056Z,98327.62
2023-05-21T13:00:12.335Z,98323.90
2023-05-21T13:02:44.776Z,98323.67
2023-05-21T13:05:19.086Z,98325.55
2023-05-21T13:07:47.698Z,98322.38
2023-05-21T13:10:17.047Z,98319.91
2023-05-21T13:12:45.411Z,98318.55
2023-05-21T13:15:13.108Z,98313.95
2023-05-21T13:17:40.648Z,98314.96
2023-05-21T13:20:18.815Z,98308.86
2023-05-21T13:22:56.051Z,98308.14
2023-05-21T13:25:29.205Z,98312.88
2023-05-21T13:27:57.909Z,98309.05
2023-05-21T13:30:25.589Z,98308.70
2023-05-21T13:32:53.524Z,98307.91
2023-05-21T13:35:21.113Z,98301.88
2023-05-21T13:37:49.541Z,98304.33
2023-05-21T13:40:19.166Z,98300.75
2023-05-21T13:42:48.449Z,98299.77
2023-05-21T13:45:18.073Z,98299.45
2023-05-21T13:47:46.298Z,98295.37
2023-05-21T13:50:14.582Z,98290.95
2023-05-21T13:52:43.032Z,98296.46
2023-05-21T13:55:11.420Z,98295.10
2023-05-21T13:57:41.015Z,98297.21
2023-05-21T14:00:12.945Z,98298.21
2023-05-21T14:02:44.769Z,98296.40
2023-05-21T14:05:12.984Z,98295.30
2023-05-21T14:07:40.966Z,98290.53
2023-05-21T14:10:09.187Z,98288.29
2023-05-21T14:12:37.638Z,98286.02
2023-05-21T14:15:05.787Z,98284.36
2023-05-21T14:17:33.656Z,98279.04
2023-05-21T14:20:02.330Z,98283.98
2023-05-21T14:22:30.397Z,98283.98
2023-05-21T14:24:57.904Z,98281.16
2023-05-21T14:28:16.659Z,98280.34
2023-05-21T14:30:44.163Z,98283.21
2023-05-21T14:33:13.824Z,98278.46
2023-05-21T14:35:44.335Z,98274.04
2023-05-21T14:38:12.097Z,98276.47
2023-05-21T14:40:41.554Z,98273.14
2023-05-21T14:43:09.044Z,98272.30
2023-05-21T14:45:37.420Z,98268.99
2023-05-21T14:48:12.145Z,98264.02
2023-05-21T14:50:39.745Z,98262.14
2023-05-21T14:53:08.626Z,98258.05
2023-05-21T14:55:37.323Z,98258.33
2023-05-21T14:58:05.251Z,98258.20
2023-05-21T15:00:33.563Z,98255.97
2023-05-21T15:03:01.246Z,98257.02
2023-05-21T15:05:30.002Z,98261.26
2023-05-21T15:07:57.754Z,98258.70
2023-05-21T15:10:26.262Z,98262.23
2023-05-21T15:12:54.445Z,98260.71
2023-05-21T15:15:22.016Z,98260.25
2023-05-21T15:17:51.350Z,98259.99
2023-05-21T15:20:21.873Z,98257.40
2023-05-21T15:22:54.932Z,98257.84
2023-05-21T15:25:26.774Z,98257.42
2023-05-21T15:27:55.169Z,98253.48
2023-05-21T15:30:22.741Z,98251.27
2023-05-21T15:32:51.396Z,98251.92
2023-05-21T15:35:19.483Z,98254.80
2023-05-21T15:37:47.316Z,98250.35
2023-05-21T15:40:14.975Z,98254.83
2023-05-21T15:42:42.785Z,98253.50
2023-05-21T15:45:11.110Z,98251.15
2023-05-21T15:47:42.866Z,98251.00
2023-05-21T15:50:11.215Z,98248.27
2023-05-21T15:52:38.923Z,98248.04
2023-05-21T15:55:06.999Z,98253.44
2023-05-21T15:57:34.793Z,98253.19
2023-05-21T16:00:02.473Z,98253.31
2023-05-21T16:02:36.756Z,98252.02
2023-05-21T16:05:04.608Z,98251.36
2023-05-21T16:07:33.088Z,98253.85
2023-05-21T16:10:01.167Z,98253.30
2023-05-21T16:12:28.746Z,98252.19
2023-05-21T16:14:56.536Z,98250.89
2023-05-21T16:17:24.419Z,98252.60
2023-05-21T16:19:53.106Z,98248.23
2023-05-21T16:22:21.112Z,98248.16
2023-05-21T16:24:48.820Z,98247.96
2023-05-21T16:27:16.384Z,98251.20
2023-05-21T16:29:46.360Z,98248.44
2023-05-21T16:32:14.423Z,98248.20
2023-05-21T16:34:42.554Z,98247.09
2023-05-21T16:37:10.152Z,98243.98
2023-05-21T16:39:37.738Z,98246.41
2023-05-21T16:42:05.976Z,98245.11
2023-05-21T16:44:33.816Z,98244.20
2023-05-21T16:47:02.368Z,98246.52
2023-05-21T16:49:29.801Z,98246.88
2023-05-21T16:51:57.673Z,98248.64
2023-05-21T16:54:27.369Z,98250.45
2023-05-21T16:56:56.306Z,98257.30
2023-05-21T16:59:23.981Z,98256.73
2023-05-21T17:01:51.749Z,98255.29
2023-05-21T17:04:19.412Z,98252.63
2023-05-21T17:06:46.927Z,98253.41
2023-05-21T17:09:15.603Z,98257.88
2023-05-21T17:11:45.161Z,98259.99
2023-05-21T17:14:17.511Z,98263.48
2023-05-21T17:16:52.367Z,98260.16
2023-05-21T17:19:20.504Z,98260.51
2023-05-21T17:21:48.464Z,98260.17
2023-05-21T17:24:16.336Z,98254.85
2023-05-21T17:26:43.856Z,98258.08
2023-05-21T17:29:12.203Z,98256.30
2023-05-21T17:31:39.850Z,98257.91
2023-05-21T17:34:07.403Z,98256.38
2023-05-21T17:36:36.031Z,98252.83
2023-05-21T17:39:03.797Z,98254.06
2023-05-21T17:41:31.340Z,98252.05
2023-05-21T17:43:59.501Z,98255.80
2023-05-21T17:46:27.080Z,98253.27
2023-05-21T17:48:54.691Z,98254.36
2023-05-21T17:51:22.615Z,98258.23
2023-05-21T17:53:50.151Z,98256.38
2023-05-21T17:56:17.583Z,98255.25
2023-05-21T17:58:45.109Z,98254.80
2023-05-21T18:01:12.748Z,98257.09
2023-05-21T18:03:40.600Z,98255.66
2023-05-21T18:06:09.534Z,98258.56
2023-05-21T18:08:38.017Z,98253.72
2023-05-21T18:11:05.587Z,98257.67
2023-05-21T18:13:33.290Z,98258.80
2023-05-21T18:16:01.028Z,98259.52
2023-05-21T18:18:29.107Z,98261.56
2023-05-21T18:20:56.875Z,98261.89
2023-05-21T18:23:24.443Z,98262.10
2023-05-21T18:25:51.979Z,98265.04
2023-05-21T18:28:19.861Z,98266.09
2023-05-21T18:30:47.724Z,98269.40
2023-05-21T18:33:15.949Z,98268.87
2023-05-21T18:35:45.083Z,98266.30
2023-05-21T18:38:13.684Z,98269.64
2023-05-21T18:40:41.197Z,98273.50
2023-05-21T18:43:11.146Z,98271.27
2023-05-21T18:45:38.620Z,98274.31
2023-05-21T18:48:06.738Z,98275.75
2023-05-21T18:50:35.380Z,98278.33
2023-05-21T18:53:03.152Z,98279.77
2023-05-21T18:55:30.711Z,98282.17
2023-05-21T18:57:58.330Z,98285.39
2023-05-21T19:00:26.065Z,98293.04
2023-05-21T19:02:54.989Z,98295.42
2023-05-21T19:05:22.743Z,98293.62
2023-05-21T19:07:50.266Z,98298.87
2023-05-21T19:10:20.464Z,98302.85
2023-05-21T19:12:48.133Z,98305.41
2023-05-21T19:15:15.863Z,98303.60
2023-05-21T19:17:43.463Z,98297.48
2023-05-21T19:20:11.325Z,98302.92
2023-05-21T19:22:39.246Z,98305.11
2023-05-21T19:25:07.402Z,98305.17
2023-05-21T19:27:34.925Z,98310.02
2023-05-21T19:30:02.557Z,98309.71
2023-05-21T19:32:29.995Z,98308.96
2023-05-21T19:34:58.474Z,98311.55
2023-05-21T19:37:26.558Z,98315.20
2023-05-21T19:39:54.517Z,98310.80
2023-05-21T19:42:22.219Z,98312.14
2023-05-21T19:44:49.878Z,98314.31
2023-05-21T19:47:18.200Z,98312.34
2023-05-21T19:49:46.135Z,98313.09
2023-05-21T19:52:13.595Z,98316.70
2023-05-21T19:54:41.131Z,98318.73
2023-05-21T19:57:11.553Z,98315.45
2023-05-21T19:59:39.974Z,98312.75
2023-05-21T20:02:09.683Z,98315.86
2023-05-21T20:04:37.117Z,98316.95
2023-05-21T20:07:04.814Z,98315.16
2023-05-21T20:09:32.414Z,98316.43
2023-05-21T20:11:59.956Z,98318.79
2023-05-21T20:14:27.372Z,98316.40
2023-05-21T20:16:55.026Z,98312.75
2023-05-21T20:19:23.449Z,98314.04
2023-05-21T20:21:51.511Z,98314.29
2023-05-21T20:24:19.346Z,98316.98
2023-05-21T20:26:49.983Z,98315.06
2023-05-21T20:29:17.735Z,98311.52
2023-05-21T20:31:45.450Z,98314.69
2023-05-21T20:34:12.963Z,98312.10
2023-05-21T20:36:43.741Z,98314.45
2023-05-21T20:39:12.407Z,98317.41
2023-05-21T20:41:39.910Z,98317.93
2023-05-21T20:44:07.425Z,98315.35
2023-05-21T20:46:39.021Z,98317.77
2023-05-21T20:49:07.226Z,98320.48
2023-05-21T20:51:34.880Z,98319.95
2023-05-21T20:54:02.343Z,98320.63
2023-05-21T20:56:41.419Z,98323.08
2023-05-21T20:59:11.269Z,98321.23
2023-05-21T21:01:41.452Z,98323.73
2023-05-21T21:04:09.738Z,98321.79
2023-05-21T21:06:38.874Z,98320.63
2023-05-21T21:09:06.463Z,98324.30
2023-05-21T21:11:34.011Z,98323.39
2023-05-21T21:14:03.953Z,98324.72
2023-05-21T21:16:31.947Z,98320.52
2023-05-21T21:18:59.930Z,98326.32
2023-05-21T21:21:28.146Z,98324.48
2023-05-21T21:23:55.640Z,98325.27
2023-05-21T21:26:23.245Z,98332.16
2023-05-21T21:28:50.761Z,98329.87
2023-05-21T21:31:18.468Z,98333.27
2023-05-21T21:33:46.052Z,98336.17
2023-05-21T21:36:13.988Z,98333.48
2023-05-21T21:38:41.821Z,98329.14
2023-05-21T21:41:09.380Z,98330.89
2023-05-21T21:43:37.758Z,98331.46
2023-05-21T21:46:05.512Z,98332.34
2023-05-21T21:48:33.343Z,98331.88
2023-05-21T21:51:00.912Z,98334.60
2023-05-21T21:53:28.475Z,98336.23
2023-05-21T21:55:56.184Z,98338.80
2023-05-21T21:58:23.702Z,98341.33
2023-05-21T22:00:51.612Z,98343.16
2023-05-21T22:03:19.383Z,98345.38
2023-05-21T22:05:47.456Z,98346.10
2023-05-21T22:08:14.935Z,98347.35
2023-05-21T22:10:42.734Z,98345.20
2023-05-21T22:13:11.423Z,98341.94
2023-05-21T22:15:40.188Z,98339.24
2023-05-21T22:18:10.415Z,98335.27
2023-05-21T22:20:39.221Z,98330.89
2023-05-21T22:23:07.214Z,98331.09
2023-05-21T22:25:34.936Z,98334.92
2023-05-21T22:28:02.591Z,98333.58
2023-05-21T22:30:31.165Z,98331.84
2023-05-21T22:32:58.930Z,98331.10
2023-05-21T22:35:26.574Z,98330.03
2023-05-21T22:37:54.065Z,98332.42
2023-05-21T22:40:21.619Z,98336.15
2023-05-21T22:42:49.414Z,98334.58
2023-05-21T22:45:17.055Z,98335.49
2023-05-21T22:47:45.000Z,98329.83
2023-05-21T22:50:13.125Z,98331.81
2023-05-21T22:52:40.956Z,98333.27
2023-05-21T22:55:11.597Z,98329.63
2023-05-21T22:57:39.606Z,98328.78
2023-05-21T23:00:08.068Z,98329.13
2023-05-21T23:02:35.747Z,98325.64
2023-05-21T23:05:03.292Z,98326.83
2023-05-21T23:07:31.130Z,98327.11
2023-05-21T23:09:59.098Z,98326.42
2023-05-21T23:12:26.502Z,98323.36
2023-05-21T23:14:54.605Z,98322.14
2023-05-21T23:17:22.272Z,98325.50
2023-05-21T23:19:52.833Z,98325.91
2023-05-21T23:22:20.457Z,98326.08
2023-05-21T23:24:48.805Z,98327.20
2023-05-21T23:27:16.246Z,98325.73
2023-05-21T23:29:43.716Z,98328.30
2023-05-21T23:32:11.386Z,98329.80
2023-05-21T23:34:39.007Z,98331.22
2023-05-21T23:37:06.556Z,98328.88
2023-05-21T23:39:34.163Z,98325.64
2023-05-21T23:42:01.963Z,98323.08
2023-05-21T23:44:29.625Z,98321.78
2023-05-21T23:46:58.171Z,98319.95
2023-05-21T23:49:25.603Z,98320.17
2023-05-21T23:51:53.000Z,98317.11
2023-05-21T23:54:20.539Z,98312.56
2023-05-21T23:56:48.350Z,98314.08
2023-05-21T23:59:18.218Z,98312.06
